sensor_id;sensor_type;location;lat;lon;timestamp;P1;durP1;ratioP1;P2;durP2;ratioP2
10277;SDS011;5184;51.376;7.148;2023-03-14T00:01:58;4.77;;;2.30;;
10277;SDS011;5184;51.376;7.148;2023-03-14T00:04:25;4.87;;;1.80;;
10277;SDS011;5184;51.376;7.148;2023-03-14T00:06:53;4.10;;;1.80;;
10277;SDS011;5184;51.376;7.148;2023-03-14T00:09:19;4.67;;;1.83;;
10277;SDS011;5184;51.376;7.148;2023-03-14T00:11:46;3.63;;;1.50;;
10277;SDS011;5184;51.376;7.148;2023-03-14T00:14:12;4.77;;;1.90;;
10277;SDS011;5184;51.376;7.148;2023-03-14T00:16:39;6.60;;;2.53;;
10277;SDS011;5184;51.376;7.148;2023-03-14T00:19:06;5.30;;;2.00;;
10277;SDS011;5184;51.376;7.148;2023-03-14T00:21:32;5.23;;;1.80;;
10277;SDS011;5184;51.376;7.148;2023-03-14T00:23:59;5.27;;;1.70;;
10277;SDS011;5184;51.376;7.148;2023-03-14T00:26:26;5.63;;;2.50;;
10277;SDS011;5184;51.376;7.148;2023-03-14T00:28:53;6.47;;;1.90;;
10277;SDS011;5184;51.376;7.148;2023-03-14T00:31:20;5.03;;;1.90;;
10277;SDS011;5184;51.376;7.148;2023-03-14T00:33:46;4.53;;;1.93;;
10277;SDS011;5184;51.376;7.148;2023-03-14T00:36:14;8.50;;;2.47;;
10277;SDS011;5184;51.376;7.148;2023-03-14T00:38:40;4.93;;;1.93;;
10277;SDS011;5184;51.376;7.148;2023-03-14T00:41:08;6.90;;;1.90;;
10277;SDS011;5184;51.376;7.148;2023-03-14T00:43:34;6.43;;;1.87;;
10277;SDS011;5184;51.376;7.148;2023-03-14T00:46:00;4.73;;;1.90;;
10277;SDS011;5184;51.376;7.148;2023-03-14T00:48:27;5.43;;;1.90;;
10277;SDS011;5184;51.376;7.148;2023-03-14T00:50:54;7.47;;;2.10;;
10277;SDS011;5184;51.376;7.148;2023-03-14T00:53:22;4.53;;;1.63;;
10277;SDS011;5184;51.376;7.148;2023-03-14T00:55:49;4.57;;;1.80;;
10277;SDS011;5184;51.376;7.148;2023-03-14T00:58:17;9.33;;;2.90;;
10277;SDS011;5184;51.376;7.148;2023-03-14T01:00:43;7.03;;;2.47;;
10277;SDS011;5184;51.376;7.148;2023-03-14T01:03:10;5.00;;;2.17;;
10277;SDS011;5184;51.376;7.148;2023-03-14T01:05:37;5.13;;;2.10;;
10277;SDS011;5184;51.376;7.148;2023-03-14T01:08:04;5.03;;;1.90;;
10277;SDS011;5184;51.376;7.148;2023-03-14T01:10:32;3.80;;;1.80;;
10277;SDS011;5184;51.376;7.148;2023-03-14T01:12:59;4.23;;;1.80;;
10277;SDS011;5184;51.376;7.148;2023-03-14T01:15:26;4.80;;;1.40;;
10277;SDS011;5184;51.376;7.148;2023-03-14T01:17:53;4.00;;;1.40;;
10277;SDS011;5184;51.376;7.148;2023-03-14T01:20:20;2.90;;;1.30;;
10277;SDS011;5184;51.376;7.148;2023-03-14T01:22:46;4.47;;;1.43;;
10277;SDS011;5184;51.376;7.148;2023-03-14T01:25:14;3.27;;;1.80;;
10277;SDS011;5184;51.376;7.148;2023-03-14T01:27:40;4.13;;;1.57;;
10277;SDS011;5184;51.376;7.148;2023-03-14T01:30:07;7.87;;;1.70;;
10277;SDS011;5184;51.376;7.148;2023-03-14T01:32:34;3.30;;;1.30;;
10277;SDS011;5184;51.376;7.148;2023-03-14T01:35:00;5.43;;;1.83;;
10277;SDS011;5184;51.376;7.148;2023-03-14T01:37:27;3.13;;;1.40;;
10277;SDS011;5184;51.376;7.148;2023-03-14T01:39:54;4.53;;;1.57;;
10277;SDS011;5184;51.376;7.148;2023-03-14T01:42:20;5.37;;;1.63;;
10277;SDS011;5184;51.376;7.148;2023-03-14T01:44:52;3.43;;;1.77;;
10277;SDS011;5184;51.376;7.148;2023-03-14T01:47:18;6.83;;;1.70;;
10277;SDS011;5184;51.376;7.148;2023-03-14T01:49:45;5.13;;;1.30;;
10277;SDS011;5184;51.376;7.148;2023-03-14T01:52:16;4.77;;;1.77;;
10277;SDS011;5184;51.376;7.148;2023-03-14T01:54:44;5.90;;;1.70;;
10277;SDS011;5184;51.376;7.148;2023-03-14T01:57:12;4.30;;;1.80;;
10277;SDS011;5184;51.376;7.148;2023-03-14T01:59:38;5.23;;;2.10;;
10277;SDS011;5184;51.376;7.148;2023-03-14T02:02:06;8.23;;;1.80;;
10277;SDS011;5184;51.376;7.148;2023-03-14T02:04:33;4.00;;;1.30;;
10277;SDS011;5184;51.376;7.148;2023-03-14T02:07:03;6.50;;;1.57;;
10277;SDS011;5184;51.376;7.148;2023-03-14T02:09:29;3.03;;;1.40;;
10277;SDS011;5184;51.376;7.148;2023-03-14T02:11:57;6.47;;;1.47;;
10277;SDS011;5184;51.376;7.148;2023-03-14T02:14:28;2.93;;;1.37;;
10277;SDS011;5184;51.376;7.148;2023-03-14T02:16:52;4.60;;;1.50;;
10277;SDS011;5184;51.376;7.148;2023-03-14T02:19:21;4.40;;;1.63;;
10277;SDS011;5184;51.376;7.148;2023-03-14T02:21:51;5.63;;;1.97;;
10277;SDS011;5184;51.376;7.148;2023-03-14T02:24:28;5.47;;;1.93;;
10277;SDS011;5184;51.376;7.148;2023-03-14T02:27:02;7.37;;;1.80;;
10277;SDS011;5184;51.376;7.148;2023-03-14T02:29:31;7.77;;;1.70;;
10277;SDS011;5184;51.376;7.148;2023-03-14T02:31:58;6.90;;;1.67;;
10277;SDS011;5184;51.376;7.148;2023-03-14T02:34:24;6.57;;;1.70;;
10277;SDS011;5184;51.376;7.148;2023-03-14T02:36:51;7.97;;;2.03;;
10277;SDS011;5184;51.376;7.148;2023-03-14T02:39:23;4.77;;;1.70;;
10277;SDS011;5184;51.376;7.148;2023-03-14T02:41:48;7.07;;;2.23;;
10277;SDS011;5184;51.376;7.148;2023-03-14T02:44:14;6.47;;;1.60;;
10277;SDS011;5184;51.376;7.148;2023-03-14T02:46:41;5.67;;;2.73;;
10277;SDS011;5184;51.376;7.148;2023-03-14T02:49:10;4.27;;;1.70;;
10277;SDS011;5184;51.376;7.148;2023-03-14T02:51:37;4.53;;;1.70;;
10277;SDS011;5184;51.376;7.148;2023-03-14T02:54:05;7.20;;;2.00;;
10277;SDS011;5184;51.376;7.148;2023-03-14T02:56:31;8.33;;;1.90;;
10277;SDS011;5184;51.376;7.148;2023-03-14T02:58:59;3.67;;;1.43;;
10277;SDS011;5184;51.376;7.148;2023-03-14T03:01:25;5.77;;;1.87;;
10277;SDS011;5184;51.376;7.148;2023-03-14T03:03:52;6.47;;;1.63;;
10277;SDS011;5184;51.376;7.148;2023-03-14T03:06:19;7.00;;;1.60;;
10277;SDS011;5184;51.376;7.148;2023-03-14T03:08:47;4.73;;;1.60;;
10277;SDS011;5184;51.376;7.148;2023-03-14T03:11:13;5.83;;;1.93;;
10277;SDS011;5184;51.376;7.148;2023-03-14T03:13:40;6.03;;;1.70;;
10277;SDS011;5184;51.376;7.148;2023-03-14T03:16:07;3.93;;;1.50;;
10277;SDS011;5184;51.376;7.148;2023-03-14T03:18:34;7.40;;;1.80;;
10277;SDS011;5184;51.376;7.148;2023-03-14T03:21:02;5.40;;;1.60;;
10277;SDS011;5184;51.376;7.148;2023-03-14T03:23:29;6.13;;;1.60;;
10277;SDS011;5184;51.376;7.148;2023-03-14T03:25:55;4.63;;;1.43;;
10277;SDS011;5184;51.376;7.148;2023-03-14T03:28:22;5.37;;;1.67;;
10277;SDS011;5184;51.376;7.148;2023-03-14T03:30:48;3.93;;;1.57;;
10277;SDS011;5184;51.376;7.148;2023-03-14T03:33:15;5.40;;;1.80;;
10277;SDS011;5184;51.376;7.148;2023-03-14T03:35:44;7.00;;;2.37;;
10277;SDS011;5184;51.376;7.148;2023-03-14T03:38:10;4.00;;;1.60;;
10277;SDS011;5184;51.376;7.148;2023-03-14T03:40:37;6.50;;;2.03;;
10277;SDS011;5184;51.376;7.148;2023-03-14T03:43:03;5.30;;;1.63;;
10277;SDS011;5184;51.376;7.148;2023-03-14T03:45:30;2.93;;;1.50;;
10277;SDS011;5184;51.376;7.148;2023-03-14T03:47:57;6.30;;;1.70;;
10277;SDS011;5184;51.376;7.148;2023-03-14T03:50:25;5.23;;;1.67;;
10277;SDS011;5184;51.376;7.148;2023-03-14T03:52:52;3.77;;;1.60;;
10277;SDS011;5184;51.376;7.148;2023-03-14T03:55:19;5.23;;;1.70;;
10277;SDS011;5184;51.376;7.148;2023-03-14T03:57:46;5.10;;;1.83;;
10277;SDS011;5184;51.376;7.148;2023-03-14T04:00:13;4.10;;;1.60;;
10277;SDS011;5184;51.376;7.148;2023-03-14T04:02:41;4.80;;;1.93;;
10277;SDS011;5184;51.376;7.148;2023-03-14T04:05:07;7.13;;;2.17;;
10277;SDS011;5184;51.376;7.148;2023-03-14T04:07:34;4.50;;;1.40;;
10277;SDS011;5184;51.376;7.148;2023-03-14T04:10:01;2.87;;;1.20;;
10277;SDS011;5184;51.376;7.148;2023-03-14T04:12:27;4.90;;;1.40;;
10277;SDS011;5184;51.376;7.148;2023-03-14T04:14:55;4.97;;;1.53;;
10277;SDS011;5184;51.376;7.148;2023-03-14T04:17:22;2.70;;;1.13;;
10277;SDS011;5184;51.376;7.148;2023-03-14T04:19:49;3.07;;;1.13;;
10277;SDS011;5184;51.376;7.148;2023-03-14T04:22:16;4.63;;;1.60;;
10277;SDS011;5184;51.376;7.148;2023-03-14T04:24:43;4.97;;;1.90;;
10277;SDS011;5184;51.376;7.148;2023-03-14T04:27:09;5.50;;;1.80;;
10277;SDS011;5184;51.376;7.148;2023-03-14T04:29:36;4.00;;;1.50;;
10277;SDS011;5184;51.376;7.148;2023-03-14T04:32:03;5.07;;;1.57;;
10277;SDS011;5184;51.376;7.148;2023-03-14T04:34:29;4.07;;;2.00;;
10277;SDS011;5184;51.376;7.148;2023-03-14T04:36:56;3.93;;;1.93;;
10277;SDS011;5184;51.376;7.148;2023-03-14T04:39:22;5.47;;;2.07;;
10277;SDS011;5184;51.376;7.148;2023-03-14T04:41:49;4.17;;;1.93;;
10277;SDS011;5184;51.376;7.148;2023-03-14T04:44:16;4.53;;;2.03;;
10277;SDS011;5184;51.376;7.148;2023-03-14T04:46:42;8.50;;;2.30;;
10277;SDS011;5184;51.376;7.148;2023-03-14T04:49:10;6.27;;;2.60;;
10277;SDS011;5184;51.376;7.148;2023-03-14T04:51:36;5.73;;;2.60;;
10277;SDS011;5184;51.376;7.148;2023-03-14T04:54:04;10.73;;;2.77;;
10277;SDS011;5184;51.376;7.148;2023-03-14T04:56:32;4.67;;;2.40;;
10277;SDS011;5184;51.376;7.148;2023-03-14T04:58:59;8.23;;;2.60;;
10277;SDS011;5184;51.376;7.148;2023-03-14T05:01:27;2.97;;;2.07;;
10277;SDS011;5184;51.376;7.148;2023-03-14T05:03:53;5.70;;;2.43;;
10277;SDS011;5184;51.376;7.148;2023-03-14T05:06:21;2.27;;;1.47;;
10277;SDS011;5184;51.376;7.148;2023-03-14T05:08:48;1.73;;;1.00;;
10277;SDS011;5184;51.376;7.148;2023-03-14T05:11:15;2.03;;;1.37;;
10277;SDS011;5184;51.376;7.148;2023-03-14T05:13:42;2.17;;;1.30;;
10277;SDS011;5184;51.376;7.148;2023-03-14T05:16:09;1.93;;;1.00;;
10277;SDS011;5184;51.376;7.148;2023-03-14T05:18:36;0.80;;;0.80;;
10277;SDS011;5184;51.376;7.148;2023-03-14T05:21:02;0.87;;;0.70;;
10277;SDS011;5184;51.376;7.148;2023-03-14T05:23:30;1.37;;;0.80;;
10277;SDS011;5184;51.376;7.148;2023-03-14T05:25:57;1.10;;;0.83;;
10277;SDS011;5184;51.376;7.148;2023-03-14T05:28:24;1.20;;;1.10;;
10277;SDS011;5184;51.376;7.148;2023-03-14T05:30:52;1.83;;;1.20;;
10277;SDS011;5184;51.376;7.148;2023-03-14T05:33:19;3.20;;;1.70;;
10277;SDS011;5184;51.376;7.148;2023-03-14T05:35:47;5.40;;;3.03;;
10277;SDS011;5184;51.376;7.148;2023-03-14T05:38:13;9.73;;;3.60;;
10277;SDS011;5184;51.376;7.148;2023-03-14T05:40:41;7.50;;;3.63;;
10277;SDS011;5184;51.376;7.148;2023-03-14T05:43:08;4.30;;;3.53;;
10277;SDS011;5184;51.376;7.148;2023-03-14T05:45:35;7.93;;;3.60;;
10277;SDS011;5184;51.376;7.148;2023-03-14T05:48:03;6.70;;;3.00;;
10277;SDS011;5184;51.376;7.148;2023-03-14T05:50:29;7.23;;;2.20;;
10277;SDS011;5184;51.376;7.148;2023-03-14T05:52:56;4.13;;;1.80;;
10277;SDS011;5184;51.376;7.148;2023-03-14T05:55:23;2.90;;;1.60;;
10277;SDS011;5184;51.376;7.148;2023-03-14T05:57:50;3.00;;;1.73;;
10277;SDS011;5184;51.376;7.148;2023-03-14T06:00:17;3.70;;;1.30;;
10277;SDS011;5184;51.376;7.148;2023-03-14T06:02:44;4.20;;;1.50;;
10277;SDS011;5184;51.376;7.148;2023-03-14T06:05:10;3.07;;;1.20;;
10277;SDS011;5184;51.376;7.148;2023-03-14T06:07:37;3.13;;;1.63;;
10277;SDS011;5184;51.376;7.148;2023-03-14T06:10:05;2.77;;;1.30;;
10277;SDS011;5184;51.376;7.148;2023-03-14T06:12:33;2.77;;;1.50;;
10277;SDS011;5184;51.376;7.148;2023-03-14T06:14:59;2.60;;;1.40;;
10277;SDS011;5184;51.376;7.148;2023-03-14T06:17:26;4.60;;;1.67;;
10277;SDS011;5184;51.376;7.148;2023-03-14T06:19:53;2.90;;;1.00;;
10277;SDS011;5184;51.376;7.148;2023-03-14T06:22:20;2.47;;;1.20;;
10277;SDS011;5184;51.376;7.148;2023-03-14T06:24:48;1.73;;;1.10;;
10277;SDS011;5184;51.376;7.148;2023-03-14T06:27:15;2.50;;;0.80;;
10277;SDS011;5184;51.376;7.148;2023-03-14T06:29:42;1.33;;;0.90;;
10277;SDS011;5184;51.376;7.148;2023-03-14T06:32:09;2.70;;;0.90;;
10277;SDS011;5184;51.376;7.148;2023-03-14T06:34:37;4.60;;;1.10;;
10277;SDS011;5184;51.376;7.148;2023-03-14T06:37:04;3.97;;;1.23;;
10277;SDS011;5184;51.376;7.148;2023-03-14T06:39:30;2.80;;;1.10;;
10277;SDS011;5184;51.376;7.148;2023-03-14T06:41:57;2.10;;;1.00;;
10277;SDS011;5184;51.376;7.148;2023-03-14T06:44:23;2.03;;;1.07;;
10277;SDS011;5184;51.376;7.148;2023-03-14T06:46:50;2.07;;;0.90;;
10277;SDS011;5184;51.376;7.148;2023-03-14T06:49:16;1.77;;;0.90;;
10277;SDS011;5184;51.376;7.148;2023-03-14T06:51:43;3.20;;;1.00;;
10277;SDS011;5184;51.376;7.148;2023-03-14T06:54:10;1.93;;;1.00;;
10277;SDS011;5184;51.376;7.148;2023-03-14T06:56:37;2.83;;;1.10;;
10277;SDS011;5184;51.376;7.148;2023-03-14T06:59:04;1.53;;;1.03;;
10277;SDS011;5184;51.376;7.148;2023-03-14T07:01:30;1.83;;;0.80;;
10277;SDS011;5184;51.376;7.148;2023-03-14T07:03:57;2.63;;;0.93;;
10277;SDS011;5184;51.376;7.148;2023-03-14T07:06:24;2.13;;;0.80;;
10277;SDS011;5184;51.376;7.148;2023-03-14T07:08:51;0.70;;;0.70;;
10277;SDS011;5184;51.376;7.148;2023-03-14T07:11:17;1.30;;;0.77;;
10277;SDS011;5184;51.376;7.148;2023-03-14T07:13:44;1.70;;;0.93;;
10277;SDS011;5184;51.376;7.148;2023-03-14T07:16:10;1.13;;;0.70;;
10277;SDS011;5184;51.376;7.148;2023-03-14T07:18:38;1.30;;;0.93;;
10277;SDS011;5184;51.376;7.148;2023-03-14T07:21:05;1.33;;;0.83;;
10277;SDS011;5184;51.376;7.148;2023-03-14T07:23:32;2.07;;;0.90;;
10277;SDS011;5184;51.376;7.148;2023-03-14T07:25:58;1.50;;;0.90;;
10277;SDS011;5184;51.376;7.148;2023-03-14T07:28:25;1.17;;;0.93;;
10277;SDS011;5184;51.376;7.148;2023-03-14T07:30:51;1.13;;;0.83;;
10277;SDS011;5184;51.376;7.148;2023-03-14T07:33:18;1.57;;;0.90;;
10277;SDS011;5184;51.376;7.148;2023-03-14T07:35:46;1.10;;;1.00;;
10277;SDS011;5184;51.376;7.148;2023-03-14T07:38:12;1.23;;;1.10;;
10277;SDS011;5184;51.376;7.148;2023-03-14T07:40:39;1.30;;;1.13;;
10277;SDS011;5184;51.376;7.148;2023-03-14T07:43:07;2.40;;;1.20;;
10277;SDS011;5184;51.376;7.148;2023-03-14T07:45:34;1.30;;;1.20;;
10277;SDS011;5184;51.376;7.148;2023-03-14T07:48:01;2.60;;;1.57;;
10277;SDS011;5184;51.376;7.148;2023-03-14T07:50:28;1.23;;;1.17;;
10277;SDS011;5184;51.376;7.148;2023-03-14T07:52:55;2.03;;;1.83;;
10277;SDS011;5184;51.376;7.148;2023-03-14T07:55:21;2.03;;;1.70;;
10277;SDS011;5184;51.376;7.148;2023-03-14T07:57:49;2.00;;;1.80;;
10277;SDS011;5184;51.376;7.148;2023-03-14T08:00:17;1.80;;;1.60;;
10277;SDS011;5184;51.376;7.148;2023-03-14T08:02:44;2.13;;;1.87;;
10277;SDS011;5184;51.376;7.148;2023-03-14T08:05:11;3.13;;;1.97;;
10277;SDS011;5184;51.376;7.148;2023-03-14T08:07:39;2.80;;;1.87;;
10277;SDS011;5184;51.376;7.148;2023-03-14T08:10:06;2.40;;;2.10;;
10277;SDS011;5184;51.376;7.148;2023-03-14T08:12:34;4.23;;;2.70;;
10277;SDS011;5184;51.376;7.148;2023-03-14T08:15:00;2.47;;;2.27;;
10277;SDS011;5184;51.376;7.148;2023-03-14T08:17:27;2.30;;;2.10;;
10277;SDS011;5184;51.376;7.148;2023-03-14T08:19:54;2.43;;;2.23;;
10277;SDS011;5184;51.376;7.148;2023-03-14T08:22:21;2.67;;;2.00;;
10277;SDS011;5184;51.376;7.148;2023-03-14T08:24:48;2.50;;;2.30;;
10277;SDS011;5184;51.376;7.148;2023-03-14T08:27:16;2.70;;;2.37;;
10277;SDS011;5184;51.376;7.148;2023-03-14T08:29:43;2.80;;;2.20;;
10277;SDS011;5184;51.376;7.148;2023-03-14T08:32:11;2.60;;;2.40;;
10277;SDS011;5184;51.376;7.148;2023-03-14T08:34:38;2.37;;;2.13;;
10277;SDS011;5184;51.376;7.148;2023-03-14T08:37:05;2.43;;;2.00;;
10277;SDS011;5184;51.376;7.148;2023-03-14T08:39:31;3.53;;;2.33;;
10277;SDS011;5184;51.376;7.148;2023-03-14T08:41:58;2.90;;;1.70;;
10277;SDS011;5184;51.376;7.148;2023-03-14T08:44:24;1.90;;;1.80;;
10277;SDS011;5184;51.376;7.148;2023-03-14T08:46:51;2.00;;;1.40;;
10277;SDS011;5184;51.376;7.148;2023-03-14T08:49:17;1.63;;;1.50;;
10277;SDS011;5184;51.376;7.148;2023-03-14T08:51:44;3.10;;;1.40;;
10277;SDS011;5184;51.376;7.148;2023-03-14T08:54:11;2.80;;;1.30;;
10277;SDS011;5184;51.376;7.148;2023-03-14T08:56:38;1.73;;;1.30;;
10277;SDS011;5184;51.376;7.148;2023-03-14T08:59:04;1.43;;;1.33;;
10277;SDS011;5184;51.376;7.148;2023-03-14T09:01:32;3.07;;;1.50;;
10277;SDS011;5184;51.376;7.148;2023-03-14T09:03:59;2.60;;;1.53;;
10277;SDS011;5184;51.376;7.148;2023-03-14T09:06:25;1.63;;;1.17;;
10277;SDS011;5184;51.376;7.148;2023-03-14T09:08:52;1.50;;;1.40;;
10277;SDS011;5184;51.376;7.148;2023-03-14T09:11:19;2.07;;;1.60;;
10277;SDS011;5184;51.376;7.148;2023-03-14T09:13:46;2.07;;;1.87;;
10277;SDS011;5184;51.376;7.148;2023-03-14T09:16:14;2.00;;;1.90;;
10277;SDS011;5184;51.376;7.148;2023-03-14T09:18:40;2.37;;;2.17;;
10277;SDS011;5184;51.376;7.148;2023-03-14T09:21:06;3.60;;;2.10;;
10277;SDS011;5184;51.376;7.148;2023-03-14T09:23:33;3.70;;;2.27;;
10277;SDS011;5184;51.376;7.148;2023-03-14T09:26:00;3.00;;;2.20;;
10277;SDS011;5184;51.376;7.148;2023-03-14T09:28:26;2.23;;;1.47;;
10277;SDS011;5184;51.376;7.148;2023-03-14T09:30:53;1.60;;;1.30;;
10277;SDS011;5184;51.376;7.148;2023-03-14T09:33:20;1.27;;;1.17;;
10277;SDS011;5184;51.376;7.148;2023-03-14T09:35:48;2.00;;;1.17;;
10277;SDS011;5184;51.376;7.148;2023-03-14T09:38:15;2.03;;;1.00;;
10277;SDS011;5184;51.376;7.148;2023-03-14T09:40:42;2.00;;;1.30;;
10277;SDS011;5184;51.376;7.148;2023-03-14T09:43:11;0.90;;;0.60;;
10277;SDS011;5184;51.376;7.148;2023-03-14T09:45:39;0.73;;;0.70;;
10277;SDS011;5184;51.376;7.148;2023-03-14T09:48:05;0.77;;;0.67;;
10277;SDS011;5184;51.376;7.148;2023-03-14T09:50:36;0.97;;;0.77;;
10277;SDS011;5184;51.376;7.148;2023-03-14T09:53:03;0.73;;;0.70;;
10277;SDS011;5184;51.376;7.148;2023-03-14T09:55:28;0.67;;;0.60;;
10277;SDS011;5184;51.376;7.148;2023-03-14T09:57:56;1.00;;;0.90;;
10277;SDS011;5184;51.376;7.148;2023-03-14T10:00:25;2.10;;;0.90;;
10277;SDS011;5184;51.376;7.148;2023-03-14T10:02:53;2.20;;;1.10;;
10277;SDS011;5184;51.376;7.148;2023-03-14T10:05:20;1.67;;;1.30;;
10277;SDS011;5184;51.376;7.148;2023-03-14T10:07:46;1.73;;;1.20;;
10277;SDS011;5184;51.376;7.148;2023-03-14T10:10:15;1.50;;;1.40;;
10277;SDS011;5184;51.376;7.148;2023-03-14T10:12:43;2.63;;;1.87;;
10277;SDS011;5184;51.376;7.148;2023-03-14T10:15:09;2.20;;;2.00;;
10277;SDS011;5184;51.376;7.148;2023-03-14T10:17:38;3.03;;;2.20;;
10277;SDS011;5184;51.376;7.148;2023-03-14T10:20:04;3.57;;;2.60;;
10277;SDS011;5184;51.376;7.148;2023-03-14T10:22:32;3.53;;;2.97;;
10277;SDS011;5184;51.376;7.148;2023-03-14T10:25:01;3.90;;;2.83;;
10277;SDS011;5184;51.376;7.148;2023-03-14T10:27:31;2.90;;;2.60;;
10277;SDS011;5184;51.376;7.148;2023-03-14T10:29:57;4.10;;;3.10;;
10277;SDS011;5184;51.376;7.148;2023-03-14T10:32:29;3.60;;;3.17;;
10277;SDS011;5184;51.376;7.148;2023-03-14T10:35:05;4.40;;;3.70;;
10277;SDS011;5184;51.376;7.148;2023-03-14T10:37:32;4.03;;;3.53;;
10277;SDS011;5184;51.376;7.148;2023-03-14T10:39:59;3.63;;;3.33;;
10277;SDS011;5184;51.376;7.148;2023-03-14T10:42:28;3.60;;;3.30;;
10277;SDS011;5184;51.376;7.148;2023-03-14T10:44:56;4.00;;;3.33;;
10277;SDS011;5184;51.376;7.148;2023-03-14T10:47:23;3.83;;;3.53;;
10277;SDS011;5184;51.376;7.148;2023-03-14T10:49:50;3.90;;;3.37;;
10277;SDS011;5184;51.376;7.148;2023-03-14T10:52:20;3.77;;;3.47;;
10277;SDS011;5184;51.376;7.148;2023-03-14T10:54:47;4.07;;;2.10;;
10277;SDS011;5184;51.376;7.148;2023-03-14T10:57:13;2.00;;;1.80;;
10277;SDS011;5184;51.376;7.148;2023-03-14T10:59:41;2.93;;;1.60;;
10277;SDS011;5184;51.376;7.148;2023-03-14T11:04:58;2.77;;;1.30;;
10277;SDS011;5184;51.376;7.148;2023-03-14T11:07:35;2.53;;;1.17;;
10277;SDS011;5184;51.376;7.148;2023-03-14T11:10:02;1.70;;;1.03;;
10277;SDS011;5184;51.376;7.148;2023-03-14T11:15:18;2.30;;;1.43;;
10277;SDS011;5184;51.376;7.148;2023-03-14T11:20:55;2.00;;;1.20;;
10277;SDS011;5184;51.376;7.148;2023-03-14T11:23:22;2.03;;;1.60;;
10277;SDS011;5184;51.376;7.148;2023-03-14T11:25:52;1.80;;;1.60;;
10277;SDS011;5184;51.376;7.148;2023-03-14T11:28:23;3.30;;;1.63;;
10277;SDS011;5184;51.376;7.148;2023-03-14T11:30:54;1.60;;;1.30;;
10277;SDS011;5184;51.376;7.148;2023-03-14T11:33:23;2.20;;;1.30;;
10277;SDS011;5184;51.376;7.148;2023-03-14T11:36:03;2.90;;;1.70;;
10277;SDS011;5184;51.376;7.148;2023-03-14T11:38:32;3.20;;;1.70;;
10277;SDS011;5184;51.376;7.148;2023-03-14T11:40:59;1.90;;;1.47;;
10277;SDS011;5184;51.376;7.148;2023-03-14T11:43:28;2.57;;;1.50;;
10277;SDS011;5184;51.376;7.148;2023-03-14T11:45:58;1.50;;;1.07;;
10277;SDS011;5184;51.376;7.148;2023-03-14T11:48:26;2.63;;;1.10;;
10277;SDS011;5184;51.376;7.148;2023-03-14T11:50:57;2.50;;;0.90;;
10277;SDS011;5184;51.376;7.148;2023-03-14T11:53:29;2.23;;;1.00;;
10277;SDS011;5184;51.376;7.148;2023-03-14T11:55:52;1.90;;;1.27;;
10277;SDS011;5184;51.376;7.148;2023-03-14T11:58:22;2.73;;;1.20;;
10277;SDS011;5184;51.376;7.148;2023-03-14T12:00:47;2.30;;;1.23;;
10277;SDS011;5184;51.376;7.148;2023-03-14T12:03:20;1.47;;;1.23;;
10277;SDS011;5184;51.376;7.148;2023-03-14T12:05:53;1.90;;;1.33;;
10277;SDS011;5184;51.376;7.148;2023-03-14T12:08:37;3.17;;;1.30;;
10277;SDS011;5184;51.376;7.148;2023-03-14T12:11:04;3.90;;;1.03;;
10277;SDS011;5184;51.376;7.148;2023-03-14T12:13:47;3.53;;;1.20;;
10277;SDS011;5184;51.376;7.148;2023-03-14T12:16:26;3.40;;;1.10;;
10277;SDS011;5184;51.376;7.148;2023-03-14T12:19:02;2.37;;;1.07;;
10277;SDS011;5184;51.376;7.148;2023-03-14T12:21:34;3.70;;;1.40;;
10277;SDS011;5184;51.376;7.148;2023-03-14T12:23:52;3.97;;;1.37;;
10277;SDS011;5184;51.376;7.148;2023-03-14T12:26:21;2.47;;;1.00;;
10277;SDS011;5184;51.376;7.148;2023-03-14T12:28:49;4.90;;;1.40;;
10277;SDS011;5184;51.376;7.148;2023-03-14T12:34:41;3.87;;;1.20;;
10277;SDS011;5184;51.376;7.148;2023-03-14T12:36:54;4.60;;;1.77;;
10277;SDS011;5184;51.376;7.148;2023-03-14T12:39:21;3.47;;;1.37;;
10277;SDS011;5184;51.376;7.148;2023-03-14T12:42:05;4.93;;;1.40;;
10277;SDS011;5184;51.376;7.148;2023-03-14T12:44:38;4.20;;;1.33;;
10277;SDS011;5184;51.376;7.148;2023-03-14T12:49:48;3.13;;;1.33;;
10277;SDS011;5184;51.376;7.148;2023-03-14T12:52:15;3.07;;;1.30;;
10277;SDS011;5184;51.376;7.148;2023-03-14T12:54:47;4.93;;;1.20;;
10277;SDS011;5184;51.376;7.148;2023-03-14T12:57:15;3.53;;;1.20;;
10277;SDS011;5184;51.376;7.148;2023-03-14T12:59:46;4.43;;;1.50;;
10277;SDS011;5184;51.376;7.148;2023-03-14T13:02:17;5.00;;;1.50;;
10277;SDS011;5184;51.376;7.148;2023-03-14T13:04:44;5.13;;;1.50;;
10277;SDS011;5184;51.376;7.148;2023-03-14T13:09:58;4.83;;;1.50;;
10277;SDS011;5184;51.376;7.148;2023-03-14T13:12:23;6.27;;;2.00;;
10277;SDS011;5184;51.376;7.148;2023-03-14T13:14:49;6.23;;;1.50;;
10277;SDS011;5184;51.376;7.148;2023-03-14T13:17:19;5.20;;;1.37;;
10277;SDS011;5184;51.376;7.148;2023-03-14T13:19:42;6.57;;;1.57;;
10277;SDS011;5184;51.376;7.148;2023-03-14T13:22:15;8.20;;;1.53;;
10277;SDS011;5184;51.376;7.148;2023-03-14T13:24:42;7.63;;;1.80;;
10277;SDS011;5184;51.376;7.148;2023-03-14T13:27:15;8.10;;;1.97;;
10277;SDS011;5184;51.376;7.148;2023-03-14T13:29:36;8.60;;;1.87;;
10277;SDS011;5184;51.376;7.148;2023-03-14T13:32:15;10.10;;;2.13;;
10277;SDS011;5184;51.376;7.148;2023-03-14T13:34:36;10.83;;;2.40;;
10277;SDS011;5184;51.376;7.148;2023-03-14T13:37:03;7.30;;;2.10;;
10277;SDS011;5184;51.376;7.148;2023-03-14T13:39:31;5.83;;;2.00;;
10277;SDS011;5184;51.376;7.148;2023-03-14T13:41:58;10.50;;;2.40;;
10277;SDS011;5184;51.376;7.148;2023-03-14T13:44:26;11.20;;;2.67;;
10277;SDS011;5184;51.376;7.148;2023-03-14T13:46:52;11.50;;;2.77;;
10277;SDS011;5184;51.376;7.148;2023-03-14T13:49:22;10.37;;;2.87;;
10277;SDS011;5184;51.376;7.148;2023-03-14T13:51:48;9.00;;;3.10;;
10277;SDS011;5184;51.376;7.148;2023-03-14T13:54:16;8.30;;;2.47;;
10277;SDS011;5184;51.376;7.148;2023-03-14T13:56:42;11.80;;;3.10;;
10277;SDS011;5184;51.376;7.148;2023-03-14T14:01:49;12.90;;;2.90;;
10277;SDS011;5184;51.376;7.148;2023-03-14T14:04:16;11.73;;;2.97;;
10277;SDS011;5184;51.376;7.148;2023-03-14T14:06:46;11.23;;;3.20;;
10277;SDS011;5184;51.376;7.148;2023-03-14T14:09:14;9.30;;;2.67;;
10277;SDS011;5184;51.376;7.148;2023-03-14T14:11:42;14.20;;;2.90;;
10277;SDS011;5184;51.376;7.148;2023-03-14T14:14:11;9.70;;;2.70;;
10277;SDS011;5184;51.376;7.148;2023-03-14T14:16:37;10.63;;;2.87;;
10277;SDS011;5184;51.376;7.148;2023-03-14T14:19:05;14.10;;;3.40;;
10277;SDS011;5184;51.376;7.148;2023-03-14T14:21:32;15.20;;;3.20;;
10277;SDS011;5184;51.376;7.148;2023-03-14T14:23:59;11.27;;;2.70;;
10277;SDS011;5184;51.376;7.148;2023-03-14T14:26:26;14.13;;;3.40;;
10277;SDS011;5184;51.376;7.148;2023-03-14T14:28:59;12.93;;;3.00;;
10277;SDS011;5184;51.376;7.148;2023-03-14T14:31:24;9.57;;;2.90;;
10277;SDS011;5184;51.376;7.148;2023-03-14T14:33:54;8.90;;;2.70;;
10277;SDS011;5184;51.376;7.148;2023-03-14T14:36:22;10.73;;;2.83;;
10277;SDS011;5184;51.376;7.148;2023-03-14T14:38:59;13.27;;;2.90;;
10277;SDS011;5184;51.376;7.148;2023-03-14T14:41:31;12.80;;;2.97;;
10277;SDS011;5184;51.376;7.148;2023-03-14T14:43:56;9.63;;;2.80;;
10277;SDS011;5184;51.376;7.148;2023-03-14T14:46:23;8.67;;;2.37;;
10277;SDS011;5184;51.376;7.148;2023-03-14T14:48:49;9.20;;;2.23;;
10277;SDS011;5184;51.376;7.148;2023-03-14T14:51:23;6.67;;;2.07;;
10277;SDS011;5184;51.376;7.148;2023-03-14T14:53:49;7.30;;;1.77;;
10277;SDS011;5184;51.376;7.148;2023-03-14T14:56:18;6.60;;;1.87;;
10277;SDS011;5184;51.376;7.148;2023-03-14T14:58:45;11.67;;;2.40;;
10277;SDS011;5184;51.376;7.148;2023-03-14T15:01:14;6.93;;;1.97;;
10277;SDS011;5184;51.376;7.148;2023-03-14T15:03:41;4.97;;;2.03;;
10277;SDS011;5184;51.376;7.148;2023-03-14T15:06:07;8.90;;;1.92;;
10277;SDS011;5184;51.376;7.148;2023-03-14T15:08:34;6.43;;;1.80;;
10277;SDS011;5184;51.376;7.148;2023-03-14T15:11:01;8.10;;;1.90;;
10277;SDS011;5184;51.376;7.148;2023-03-14T15:13:27;4.23;;;1.90;;
10277;SDS011;5184;51.376;7.148;2023-03-14T15:15:54;8.60;;;2.00;;
10277;SDS011;5184;51.376;7.148;2023-03-14T15:18:22;7.73;;;1.83;;
10277;SDS011;5184;51.376;7.148;2023-03-14T15:20:48;7.43;;;1.90;;
10277;SDS011;5184;51.376;7.148;2023-03-14T15:23:16;7.30;;;1.83;;